sensor_id;sensor_type;location;lat;lon;timestamp;temperature;humidity
16736;DHT22;17990;49.548;9.730;2024-01-07T00:01:48;4.60;99.90
16736;DHT22;17990;49.548;9.730;2024-01-07T00:04:15;4.70;99.90
16736;DHT22;17990;49.548;9.730;2024-01-07T00:06:42;4.70;99.90
16736;DHT22;17990;49.548;9.730;2024-01-07T00:09:11;4.70;99.90
16736;DHT22;17990;49.548;9.730;2024-01-07T00:11:38;4.60;99.90
16736;DHT22;17990;49.548;9.730;2024-01-07T00:14:05;4.70;99.90
16736;DHT22;17990;49.548;9.730;2024-01-07T00:16:32;4.70;99.90
16736;DHT22;17990;49.548;9.730;2024-01-07T00:18:59;4.70;99.90
16736;DHT22;17990;49.548;9.730;2024-01-07T00:21:26;4.60;99.90
16736;DHT22;17990;49.548;9.730;2024-01-07T00:23:53;4.60;99.90
16736;DHT22;17990;49.548;9.730;2024-01-07T00:26:21;4.60;99.90
16736;DHT22;17990;49.548;9.730;2024-01-07T00:28:48;4.60;99.90
16736;DHT22;17990;49.548;9.730;2024-01-07T00:31:14;4.50;99.90
16736;DHT22;17990;49.548;9.730;2024-01-07T00:33:41;4.30;99.90
16736;DHT22;17990;49.548;9.730;2024-01-07T00:36:08;4.30;99.90
16736;DHT22;17990;49.548;9.730;2024-01-07T00:38:35;4.30;99.90
16736;DHT22;17990;49.548;9.730;2024-01-07T00:41:02;4.30;99.90
16736;DHT22;17990;49.548;9.730;2024-01-07T00:43:30;4.20;99.90
16736;DHT22;17990;49.548;9.730;2024-01-07T00:45:56;4.20;99.90
16736;DHT22;17990;49.548;9.730;2024-01-07T00:48:23;4.20;99.90
16736;DHT22;17990;49.548;9.730;2024-01-07T00:50:50;4.20;99.90
16736;DHT22;17990;49.548;9.730;2024-01-07T00:53:17;4.30;99.90
16736;DHT22;17990;49.548;9.730;2024-01-07T00:55:43;4.30;99.90
16736;DHT22;17990;49.548;9.730;2024-01-07T00:58:10;4.40;99.90
16736;DHT22;17990;49.548;9.730;2024-01-07T01:00:38;4.40;99.90
16736;DHT22;17990;49.548;9.730;2024-01-07T01:03:05;4.40;99.90
16736;DHT22;17990;49.548;9.730;2024-01-07T01:05:31;4.40;99.90
16736;DHT22;17990;49.548;9.730;2024-01-07T01:07:58;4.40;99.90
16736;DHT22;17990;49.548;9.730;2024-01-07T01:10:25;4.30;99.90
16736;DHT22;17990;49.548;9.730;2024-01-07T01:12:52;4.30;99.90
16736;DHT22;17990;49.548;9.730;2024-01-07T01:15:19;4.20;99.90
16736;DHT22;17990;49.548;9.730;2024-01-07T01:17:47;4.10;99.90
16736;DHT22;17990;49.548;9.730;2024-01-07T01:20:14;4.10;99.90
16736;DHT22;17990;49.548;9.730;2024-01-07T01:22:41;4.20;99.90
16736;DHT22;17990;49.548;9.730;2024-01-07T01:25:08;4.20;99.90
16736;DHT22;17990;49.548;9.730;2024-01-07T01:27:35;4.20;99.90
16736;DHT22;17990;49.548;9.730;2024-01-07T01:30:02;4.30;99.90
16736;DHT22;17990;49.548;9.730;2024-01-07T01:32:29;4.30;99.90
16736;DHT22;17990;49.548;9.730;2024-01-07T01:34:57;4.30;99.90
16736;DHT22;17990;49.548;9.730;2024-01-07T01:37:24;4.30;99.90
16736;DHT22;17990;49.548;9.730;2024-01-07T01:39:51;4.40;99.90
16736;DHT22;17990;49.548;9.730;2024-01-07T01:42:17;4.40;99.90
16736;DHT22;17990;49.548;9.730;2024-01-07T01:44:46;4.40;99.90
16736;DHT22;17990;49.548;9.730;2024-01-07T01:47:13;4.40;99.90
16736;DHT22;17990;49.548;9.730;2024-01-07T01:49:40;4.40;99.90
16736;DHT22;17990;49.548;9.730;2024-01-07T01:52:08;4.40;99.90
16736;DHT22;17990;49.548;9.730;2024-01-07T01:54:36;4.30;99.90
16736;DHT22;17990;49.548;9.730;2024-01-07T01:57:03;4.30;99.90
16736;DHT22;17990;49.548;9.730;2024-01-07T01:59:30;4.30;99.90
16736;DHT22;17990;49.548;9.730;2024-01-07T02:01:57;4.30;99.90
16736;DHT22;17990;49.548;9.730;2024-01-07T02:04:24;4.30;99.90
16736;DHT22;17990;49.548;9.730;2024-01-07T02:06:51;4.30;99.90
16736;DHT22;17990;49.548;9.730;2024-01-07T02:09:19;4.30;99.90
16736;DHT22;17990;49.548;9.730;2024-01-07T02:12:00;4.30;99.90
16736;DHT22;17990;49.548;9.730;2024-01-07T02:14:27;4.30;99.90
16736;DHT22;17990;49.548;9.730;2024-01-07T02:16:54;4.30;99.90
16736;DHT22;17990;49.548;9.730;2024-01-07T02:19:21;4.30;99.90
16736;DHT22;17990;49.548;9.730;2024-01-07T02:21:50;4.40;99.90
16736;DHT22;17990;49.548;9.730;2024-01-07T02:24:18;4.40;99.90
16736;DHT22;17990;49.548;9.730;2024-01-07T02:26:45;4.40;99.90
16736;DHT22;17990;49.548;9.730;2024-01-07T02:29:12;4.40;99.90
16736;DHT22;17990;49.548;9.730;2024-01-07T02:31:39;4.40;99.90
16736;DHT22;17990;49.548;9.730;2024-01-07T02:34:05;4.40;99.90
16736;DHT22;17990;49.548;9.730;2024-01-07T02:36:32;4.40;99.90
16736;DHT22;17990;49.548;9.730;2024-01-07T02:38:59;4.40;99.90
16736;DHT22;17990;49.548;9.730;2024-01-07T02:41:27;4.40;99.90
16736;DHT22;17990;49.548;9.730;2024-01-07T02:43:54;4.40;99.90
16736;DHT22;17990;49.548;9.730;2024-01-07T02:46:20;4.40;99.90
16736;DHT22;17990;49.548;9.730;2024-01-07T02:48:46;4.40;99.90
16736;DHT22;17990;49.548;9.730;2024-01-07T02:51:13;4.40;99.90
16736;DHT22;17990;49.548;9.730;2024-01-07T02:53:40;4.40;99.90
16736;DHT22;17990;49.548;9.730;2024-01-07T02:56:07;4.40;99.90
16736;DHT22;17990;49.548;9.730;2024-01-07T02:58:35;4.40;99.90
16736;DHT22;17990;49.548;9.730;2024-01-07T03:01:07;4.40;99.90
16736;DHT22;17990;49.548;9.730;2024-01-07T03:03:34;4.40;99.90
16736;DHT22;17990;49.548;9.730;2024-01-07T03:06:01;4.40;99.90
16736;DHT22;17990;49.548;9.730;2024-01-07T03:08:28;4.40;99.90
16736;DHT22;17990;49.548;9.730;2024-01-07T03:10:55;4.40;99.90
16736;DHT22;17990;49.548;9.730;2024-01-07T03:13:21;4.50;99.90
16736;DHT22;17990;49.548;9.730;2024-01-07T03:15:50;4.50;99.90
16736;DHT22;17990;49.548;9.730;2024-01-07T03:18:17;4.50;99.90
16736;DHT22;17990;49.548;9.730;2024-01-07T03:20:44;4.50;99.90
16736;DHT22;17990;49.548;9.730;2024-01-07T03:23:11;4.50;99.90
16736;DHT22;17990;49.548;9.730;2024-01-07T03:25:37;4.50;99.90
16736;DHT22;17990;49.548;9.730;2024-01-07T03:28:05;4.60;99.90
16736;DHT22;17990;49.548;9.730;2024-01-07T03:30:32;4.60;99.90
16736;DHT22;17990;49.548;9.730;2024-01-07T03:33:00;4.60;99.90
16736;DHT22;17990;49.548;9.730;2024-01-07T03:35:27;4.60;99.90
16736;DHT22;17990;49.548;9.730;2024-01-07T03:37:54;4.60;99.90
16736;DHT22;17990;49.548;9.730;2024-01-07T03:40:21;4.60;99.90
16736;DHT22;17990;49.548;9.730;2024-01-07T03:42:48;4.70;99.90
16736;DHT22;17990;49.548;9.730;2024-01-07T03:45:14;4.70;99.90
16736;DHT22;17990;49.548;9.730;2024-01-07T03:47:41;4.70;99.90
16736;DHT22;17990;49.548;9.730;2024-01-07T03:50:10;4.70;99.90
16736;DHT22;17990;49.548;9.730;2024-01-07T03:52:36;4.70;99.90
16736;DHT22;17990;49.548;9.730;2024-01-07T03:55:04;4.70;99.90
16736;DHT22;17990;49.548;9.730;2024-01-07T03:57:31;4.60;99.90
16736;DHT22;17990;49.548;9.730;2024-01-07T04:00:01;4.60;99.90
16736;DHT22;17990;49.548;9.730;2024-01-07T04:02:28;4.70;99.90
16736;DHT22;17990;49.548;9.730;2024-01-07T04:04:54;4.70;99.90
16736;DHT22;17990;49.548;9.730;2024-01-07T04:07:23;4.70;99.90
16736;DHT22;17990;49.548;9.730;2024-01-07T04:09:49;4.70;99.90
16736;DHT22;17990;49.548;9.730;2024-01-07T04:12:16;4.70;99.90
16736;DHT22;17990;49.548;9.730;2024-01-07T04:14:43;4.70;99.90
16736;DHT22;17990;49.548;9.730;2024-01-07T04:17:10;4.80;99.90
16736;DHT22;17990;49.548;9.730;2024-01-07T04:19:37;4.80;99.90
16736;DHT22;17990;49.548;9.730;2024-01-07T04:22:04;4.90;99.90
16736;DHT22;17990;49.548;9.730;2024-01-07T04:24:32;4.90;99.90
16736;DHT22;17990;49.548;9.730;2024-01-07T04:26:59;5.00;99.90
16736;DHT22;17990;49.548;9.730;2024-01-07T04:29:26;5.00;99.90
16736;DHT22;17990;49.548;9.730;2024-01-07T04:31:52;5.00;99.90
16736;DHT22;17990;49.548;9.730;2024-01-07T04:34:19;5.00;99.90
16736;DHT22;17990;49.548;9.730;2024-01-07T04:36:46;5.10;99.90
16736;DHT22;17990;49.548;9.730;2024-01-07T04:39:13;5.10;99.90
16736;DHT22;17990;49.548;9.730;2024-01-07T04:41:41;5.10;99.90
16736;DHT22;17990;49.548;9.730;2024-01-07T04:44:08;5.00;99.90
16736;DHT22;17990;49.548;9.730;2024-01-07T04:46:37;5.10;99.90
16736;DHT22;17990;49.548;9.730;2024-01-07T04:49:04;5.00;99.90
16736;DHT22;17990;49.548;9.730;2024-01-07T04:51:32;5.00;99.90
16736;DHT22;17990;49.548;9.730;2024-01-07T04:53:59;5.00;99.90
16736;DHT22;17990;49.548;9.730;2024-01-07T04:56:25;5.00;99.90
16736;DHT22;17990;49.548;9.730;2024-01-07T04:58:53;5.00;99.90
16736;DHT22;17990;49.548;9.730;2024-01-07T05:01:20;5.00;99.90
16736;DHT22;17990;49.548;9.730;2024-01-07T05:03:48;4.90;99.90
16736;DHT22;17990;49.548;9.730;2024-01-07T05:06:14;5.00;99.90
16736;DHT22;17990;49.548;9.730;2024-01-07T05:08:41;5.00;99.90
16736;DHT22;17990;49.548;9.730;2024-01-07T05:11:09;5.00;99.90
16736;DHT22;17990;49.548;9.730;2024-01-07T05:13:36;4.90;99.90
16736;DHT22;17990;49.548;9.730;2024-01-07T05:16:05;4.90;99.90
16736;DHT22;17990;49.548;9.730;2024-01-07T05:18:32;4.90;99.90
16736;DHT22;17990;49.548;9.730;2024-01-07T05:20:59;4.90;99.90
16736;DHT22;17990;49.548;9.730;2024-01-07T05:23:25;4.90;99.90
16736;DHT22;17990;49.548;9.730;2024-01-07T05:25:52;4.90;99.90
16736;DHT22;17990;49.548;9.730;2024-01-07T05:28:19;4.80;99.90
16736;DHT22;17990;49.548;9.730;2024-01-07T05:30:46;4.80;99.90
16736;DHT22;17990;49.548;9.730;2024-01-07T05:33:14;4.70;99.90
16736;DHT22;17990;49.548;9.730;2024-01-07T05:35:41;4.70;99.90
16736;DHT22;17990;49.548;9.730;2024-01-07T05:38:08;4.70;99.90
16736;DHT22;17990;49.548;9.730;2024-01-07T05:40:34;4.70;99.90
16736;DHT22;17990;49.548;9.730;2024-01-07T05:43:01;4.70;99.90
16736;DHT22;17990;49.548;9.730;2024-01-07T05:45:28;4.70;99.90
16736;DHT22;17990;49.548;9.730;2024-01-07T05:47:54;4.70;99.90
16736;DHT22;17990;49.548;9.730;2024-01-07T05:50:22;4.70;99.90
16736;DHT22;17990;49.548;9.730;2024-01-07T05:52:49;4.70;99.90
16736;DHT22;17990;49.548;9.730;2024-01-07T05:55:16;4.70;99.90
16736;DHT22;17990;49.548;9.730;2024-01-07T05:57:43;4.70;99.90
16736;DHT22;17990;49.548;9.730;2024-01-07T06:00:11;4.60;99.90
16736;DHT22;17990;49.548;9.730;2024-01-07T06:02:38;4.60;99.90
16736;DHT22;17990;49.548;9.730;2024-01-07T06:05:06;4.60;99.90
16736;DHT22;17990;49.548;9.730;2024-01-07T06:07:34;4.60;99.90
16736;DHT22;17990;49.548;9.730;2024-01-07T06:10:00;4.60;99.90
16736;DHT22;17990;49.548;9.730;2024-01-07T06:12:27;4.60;99.90
16736;DHT22;17990;49.548;9.730;2024-01-07T06:14:54;4.60;99.90
16736;DHT22;17990;49.548;9.730;2024-01-07T06:17:21;4.60;99.90
16736;DHT22;17990;49.548;9.730;2024-01-07T06:19:47;4.60;99.90
16736;DHT22;17990;49.548;9.730;2024-01-07T06:22:14;4.60;99.90
16736;DHT22;17990;49.548;9.730;2024-01-07T06:24:42;4.60;99.90
16736;DHT22;17990;49.548;9.730;2024-01-07T06:27:09;4.60;99.90
16736;DHT22;17990;49.548;9.730;2024-01-07T06:29:36;4.60;99.90
16736;DHT22;17990;49.548;9.730;2024-01-07T06:32:03;4.60;99.90
16736;DHT22;17990;49.548;9.730;2024-01-07T06:34:30;4.50;99.90
16736;DHT22;17990;49.548;9.730;2024-01-07T06:36:58;4.40;99.90
16736;DHT22;17990;49.548;9.730;2024-01-07T06:39:25;4.40;99.90
16736;DHT22;17990;49.548;9.730;2024-01-07T06:41:53;4.40;99.90
16736;DHT22;17990;49.548;9.730;2024-01-07T06:44:20;4.30;99.90
16736;DHT22;17990;49.548;9.730;2024-01-07T06:46:47;4.30;99.90
16736;DHT22;17990;49.548;9.730;2024-01-07T06:49:14;4.30;99.90
16736;DHT22;17990;49.548;9.730;2024-01-07T06:51:40;4.20;99.90
16736;DHT22;17990;49.548;9.730;2024-01-07T06:54:07;4.20;99.90
16736;DHT22;17990;49.548;9.730;2024-01-07T06:56:34;4.20;99.90
16736;DHT22;17990;49.548;9.730;2024-01-07T06:59:02;4.20;99.90
16736;DHT22;17990;49.548;9.730;2024-01-07T07:01:28;4.10;99.90
16736;DHT22;17990;49.548;9.730;2024-01-07T07:03:55;4.10;99.90
16736;DHT22;17990;49.548;9.730;2024-01-07T07:06:22;4.10;99.90
16736;DHT22;17990;49.548;9.730;2024-01-07T07:08:49;4.10;99.90
16736;DHT22;17990;49.548;9.730;2024-01-07T07:11:16;4.10;99.90
16736;DHT22;17990;49.548;9.730;2024-01-07T07:13:43;4.00;99.90
16736;DHT22;17990;49.548;9.730;2024-01-07T07:16:11;4.00;99.90
16736;DHT22;17990;49.548;9.730;2024-01-07T07:18:38;3.90;99.90
16736;DHT22;17990;49.548;9.730;2024-01-07T07:21:05;3.90;99.90
16736;DHT22;17990;49.548;9.730;2024-01-07T07:23:32;3.90;99.90
16736;DHT22;17990;49.548;9.730;2024-01-07T07:25:58;3.90;99.90
16736;DHT22;17990;49.548;9.730;2024-01-07T07:28:25;3.80;99.90
16736;DHT22;17990;49.548;9.730;2024-01-07T07:30:52;3.80;99.90
16736;DHT22;17990;49.548;9.730;2024-01-07T07:33:20;3.80;99.90
16736;DHT22;17990;49.548;9.730;2024-01-07T07:35:47;3.80;99.90
16736;DHT22;17990;49.548;9.730;2024-01-07T07:38:13;3.80;99.90
16736;DHT22;17990;49.548;9.730;2024-01-07T07:40:40;3.80;99.90
16736;DHT22;17990;49.548;9.730;2024-01-07T07:43:08;3.90;99.90
16736;DHT22;17990;49.548;9.730;2024-01-07T07:45:35;3.90;99.90
16736;DHT22;17990;49.548;9.730;2024-01-07T07:48:02;3.80;99.90
16736;DHT22;17990;49.548;9.730;2024-01-07T07:50:30;3.70;99.90
16736;DHT22;17990;49.548;9.730;2024-01-07T07:52:56;3.80;99.90
16736;DHT22;17990;49.548;9.730;2024-01-07T07:55:23;3.70;99.90
16736;DHT22;17990;49.548;9.730;2024-01-07T07:57:50;3.80;99.90
16736;DHT22;17990;49.548;9.730;2024-01-07T08:00:17;3.80;99.90
16736;DHT22;17990;49.548;9.730;2024-01-07T08:02:44;3.70;99.90
16736;DHT22;17990;49.548;9.730;2024-01-07T08:05:11;3.80;99.90
16736;DHT22;17990;49.548;9.730;2024-01-07T08:07:39;3.70;99.90
16736;DHT22;17990;49.548;9.730;2024-01-07T08:10:07;3.80;99.90
16736;DHT22;17990;49.548;9.730;2024-01-07T08:12:34;3.80;99.90
16736;DHT22;17990;49.548;9.730;2024-01-07T08:15:01;3.90;99.90
16736;DHT22;17990;49.548;9.730;2024-01-07T08:17:28;4.00;99.90
16736;DHT22;17990;49.548;9.730;2024-01-07T08:19:55;3.90;99.90
16736;DHT22;17990;49.548;9.730;2024-01-07T08:22:22;4.00;99.90
16736;DHT22;17990;49.548;9.730;2024-01-07T08:24:50;4.00;99.90
16736;DHT22;17990;49.548;9.730;2024-01-07T08:27:17;4.00;99.90
16736;DHT22;17990;49.548;9.730;2024-01-07T08:29:43;4.00;99.90
16736;DHT22;17990;49.548;9.730;2024-01-07T08:32:10;4.00;99.90
16736;DHT22;17990;49.548;9.730;2024-01-07T08:34:38;3.90;99.90
16736;DHT22;17990;49.548;9.730;2024-01-07T08:37:04;3.90;99.90
16736;DHT22;17990;49.548;9.730;2024-01-07T08:39:31;3.90;99.90
16736;DHT22;17990;49.548;9.730;2024-01-07T08:41:59;3.90;99.90
16736;DHT22;17990;49.548;9.730;2024-01-07T08:44:26;4.00;99.90
16736;DHT22;17990;49.548;9.730;2024-01-07T08:46:53;3.90;99.90
16736;DHT22;17990;49.548;9.730;2024-01-07T08:49:20;4.00;99.90
16736;DHT22;17990;49.548;9.730;2024-01-07T08:51:46;3.80;99.90
16736;DHT22;17990;49.548;9.730;2024-01-07T08:54:13;3.80;99.90
16736;DHT22;17990;49.548;9.730;2024-01-07T08:56:40;3.90;99.90
16736;DHT22;17990;49.548;9.730;2024-01-07T08:59:08;4.10;99.90
16736;DHT22;17990;49.548;9.730;2024-01-07T09:01:35;4.20;99.90
16736;DHT22;17990;49.548;9.730;2024-01-07T09:04:01;4.20;99.90
16736;DHT22;17990;49.548;9.730;2024-01-07T09:06:28;4.20;99.90
16736;DHT22;17990;49.548;9.730;2024-01-07T09:08:55;4.20;99.90
16736;DHT22;17990;49.548;9.730;2024-01-07T09:11:22;4.10;99.90
16736;DHT22;17990;49.548;9.730;2024-01-07T09:13:49;4.00;99.90
16736;DHT22;17990;49.548;9.730;2024-01-07T09:16:18;4.10;99.90
16736;DHT22;17990;49.548;9.730;2024-01-07T09:18:44;4.10;99.90
16736;DHT22;17990;49.548;9.730;2024-01-07T09:21:12;4.20;99.90
16736;DHT22;17990;49.548;9.730;2024-01-07T09:23:39;4.20;99.90
16736;DHT22;17990;49.548;9.730;2024-01-07T09:26:07;4.30;99.90
16736;DHT22;17990;49.548;9.730;2024-01-07T09:28:34;4.50;99.90
16736;DHT22;17990;49.548;9.730;2024-01-07T09:31:00;4.60;99.90
16736;DHT22;17990;49.548;9.730;2024-01-07T09:33:28;4.70;99.90
16736;DHT22;17990;49.548;9.730;2024-01-07T09:35:55;4.80;99.90
16736;DHT22;17990;49.548;9.730;2024-01-07T09:38:22;4.70;99.90
16736;DHT22;17990;49.548;9.730;2024-01-07T09:40:50;4.60;99.90
16736;DHT22;17990;49.548;9.730;2024-01-07T09:43:17;4.20;99.90
16736;DHT22;17990;49.548;9.730;2024-01-07T09:45:46;4.10;99.90
16736;DHT22;17990;49.548;9.730;2024-01-07T09:48:13;4.00;99.90
16736;DHT22;17990;49.548;9.730;2024-01-07T09:50:42;3.90;99.90
16736;DHT22;17990;49.548;9.730;2024-01-07T09:53:13;3.80;99.90
16736;DHT22;17990;49.548;9.730;2024-01-07T09:55:47;3.70;99.90
16736;DHT22;17990;49.548;9.730;2024-01-07T09:58:18;3.80;99.90
16736;DHT22;17990;49.548;9.730;2024-01-07T10:00:44;3.80;99.90
16736;DHT22;17990;49.548;9.730;2024-01-07T10:03:11;3.80;99.90
16736;DHT22;17990;49.548;9.730;2024-01-07T10:05:39;3.80;99.90
16736;DHT22;17990;49.548;9.730;2024-01-07T10:08:07;3.80;99.90
16736;DHT22;17990;49.548;9.730;2024-01-07T10:10:35;3.80;99.90
16736;DHT22;17990;49.548;9.730;2024-01-07T10:13:02;3.80;99.90
16736;DHT22;17990;49.548;9.730;2024-01-07T10:15:29;3.70;99.90
16736;DHT22;17990;49.548;9.730;2024-01-07T10:18:03;3.70;99.90
16736;DHT22;17990;49.548;9.730;2024-01-07T10:20:31;3.80;99.90
16736;DHT22;17990;49.548;9.730;2024-01-07T10:22:58;3.80;99.90
16736;DHT22;17990;49.548;9.730;2024-01-07T10:25:26;3.70;99.90
16736;DHT22;17990;49.548;9.730;2024-01-07T10:27:53;3.80;99.90
16736;DHT22;17990;49.548;9.730;2024-01-07T10:30:20;3.70;99.90
16736;DHT22;17990;49.548;9.730;2024-01-07T10:32:47;3.70;99.90
16736;DHT22;17990;49.548;9.730;2024-01-07T10:35:14;3.60;99.90
16736;DHT22;17990;49.548;9.730;2024-01-07T10:37:44;3.50;99.90
16736;DHT22;17990;49.548;9.730;2024-01-07T10:40:11;3.50;99.90
16736;DHT22;17990;49.548;9.730;2024-01-07T10:42:40;3.50;99.90
16736;DHT22;17990;49.548;9.730;2024-01-07T10:45:09;3.50;99.90
16736;DHT22;17990;49.548;9.730;2024-01-07T10:47:36;3.40;99.90
16736;DHT22;17990;49.548;9.730;2024-01-07T10:50:05;3.40;99.90
16736;DHT22;17990;49.548;9.730;2024-01-07T10:52:33;3.40;99.90
16736;DHT22;17990;49.548;9.730;2024-01-07T10:55:09;3.40;99.90
16736;DHT22;17990;49.548;9.730;2024-01-07T10:57:44;3.30;99.90
16736;DHT22;17990;49.548;9.730;2024-01-07T11:00:13;3.10;99.90
16736;DHT22;17990;49.548;9.730;2024-01-07T11:02:51;3.10;99.90
16736;DHT22;17990;49.548;9.730;2024-01-07T11:05:25;3.10;99.90
16736;DHT22;17990;49.548;9.730;2024-01-07T11:08:01;3.10;99.90
16736;DHT22;17990;49.548;9.730;2024-01-07T11:10:37;3.00;99.90
16736;DHT22;17990;49.548;9.730;2024-01-07T11:13:06;3.00;99.90
16736;DHT22;17990;49.548;9.730;2024-01-07T11:15:52;3.00;99.90
16736;DHT22;17990;49.548;9.730;2024-01-07T11:18:19;3.00;99.90
16736;DHT22;17990;49.548;9.730;2024-01-07T11:20:46;3.00;99.90
16736;DHT22;17990;49.548;9.730;2024-01-07T11:23:31;2.90;99.90
16736;DHT22;17990;49.548;9.730;2024-01-07T11:26:00;3.00;99.90
16736;DHT22;17990;49.548;9.730;2024-01-07T11:28:48;2.90;99.90
16736;DHT22;17990;49.548;9.730;2024-01-07T11:31:16;2.90;99.90
16736;DHT22;17990;49.548;9.730;2024-01-07T11:33:43;2.80;99.90
16736;DHT22;17990;49.548;9.730;2024-01-07T11:36:12;2.80;99.90
16736;DHT22;17990;49.548;9.730;2024-01-07T11:38:42;2.90;99.90
16736;DHT22;17990;49.548;9.730;2024-01-07T11:41:11;2.90;99.90
16736;DHT22;17990;49.548;9.730;2024-01-07T11:43:38;2.80;99.90
16736;DHT22;17990;49.548;9.730;2024-01-07T11:46:06;2.80;99.90
16736;DHT22;17990;49.548;9.730;2024-01-07T11:48:33;2.70;99.90
16736;DHT22;17990;49.548;9.730;2024-01-07T11:51:00;2.70;99.90
16736;DHT22;17990;49.548;9.730;2024-01-07T11:53:27;2.70;99.90
16736;DHT22;17990;49.548;9.730;2024-01-07T11:55:54;2.60;99.90
16736;DHT22;17990;49.548;9.730;2024-01-07T11:58:21;2.60;99.90
16736;DHT22;17990;49.548;9.730;2024-01-07T12:00:47;2.50;99.90
16736;DHT22;17990;49.548;9.730;2024-01-07T12:03:16;2.40;99.90
16736;DHT22;17990;49.548;9.730;2024-01-07T12:05:43;2.40;99.90
16736;DHT22;17990;49.548;9.730;2024-01-07T12:08:11;2.40;99.90
16736;DHT22;17990;49.548;9.730;2024-01-07T12:10:38;2.40;99.90
16736;DHT22;17990;49.548;9.730;2024-01-07T12:13:04;2.40;99.90
16736;DHT22;17990;49.548;9.730;2024-01-07T12:15:32;2.40;99.90
16736;DHT22;17990;49.548;9.730;2024-01-07T12:17:59;2.30;99.90
16736;DHT22;17990;49.548;9.730;2024-01-07T12:20:28;2.30;99.90
16736;DHT22;17990;49.548;9.730;2024-01-07T12:23:05;2.40;99.90
16736;DHT22;17990;49.548;9.730;2024-01-07T12:25:32;2.40;99.90
16736;DHT22;17990;49.548;9.730;2024-01-07T12:27:59;2.40;99.90
16736;DHT22;17990;49.548;9.730;2024-01-07T12:30:25;2.40;99.90
16736;DHT22;17990;49.548;9.730;2024-01-07T12:32:52;2.40;99.90
16736;DHT22;17990;49.548;9.730;2024-01-07T12:35:19;2.50;99.90
16736;DHT22;17990;49.548;9.730;2024-01-07T12:37:49;2.50;99.90
16736;DHT22;17990;49.548;9.730;2024-01-07T12:40:15;2.40;99.90
16736;DHT22;17990;49.548;9.730;2024-01-07T12:42:43;2.40;99.90
16736;DHT22;17990;49.548;9.730;2024-01-07T12:45:12;2.30;99.90
16736;DHT22;17990;49.548;9.730;2024-01-07T12:47:40;2.40;99.90
16736;DHT22;17990;49.548;9.730;2024-01-07T12:50:07;2.30;99.90
16736;DHT22;17990;49.548;9.730;2024-01-07T12:52:36;2.30;99.90
16736;DHT22;17990;49.548;9.730;2024-01-07T12:55:05;2.20;99.90
16736;DHT22;17990;49.548;9.730;2024-01-07T12:57:32;2.20;99.90
16736;DHT22;17990;49.548;9.730;2024-01-07T12:59:58;2.20;99.90
16736;DHT22;17990;49.548;9.730;2024-01-07T13:02:26;2.20;99.90
16736;DHT22;17990;49.548;9.730;2024-01-07T13:04:53;2.20;99.90
16736;DHT22;17990;49.548;9.730;2024-01-07T13:07:20;2.20;99.90
16736;DHT22;17990;49.548;9.730;2024-01-07T13:09:48;2.20;99.90
16736;DHT22;17990;49.548;9.730;2024-01-07T13:12:16;2.10;99.90
16736;DHT22;17990;49.548;9.730;2024-01-07T13:14:43;2.10;99.90
16736;DHT22;17990;49.548;9.730;2024-01-07T13:17:12;2.10;99.90
16736;DHT22;17990;49.548;9.730;2024-01-07T13:19:39;2.10;99.90
16736;DHT22;17990;49.548;9.730;2024-01-07T13:22:06;2.10;99.90
16736;DHT22;17990;49.548;9.730;2024-01-07T13:24:32;2.20;99.90
16736;DHT22;17990;49.548;9.730;2024-01-07T13:26:59;2.20;99.90
16736;DHT22;17990;49.548;9.730;2024-01-07T13:29:27;2.20;99.90
16736;DHT22;17990;49.548;9.730;2024-01-07T13:31:54;2.10;99.90
16736;DHT22;17990;49.548;9.730;2024-01-07T13:34:21;2.10;99.90
16736;DHT22;17990;49.548;9.730;2024-01-07T13:36:47;2.10;99.90
16736;DHT22;17990;49.548;9.730;2024-01-07T13:39:14;2.10;99.90
16736;DHT22;17990;49.548;9.730;2024-01-07T13:41:42;2.20;99.90
16736;DHT22;17990;49.548;9.730;2024-01-07T13:44:09;2.10;99.90
16736;DHT22;17990;49.548;9.730;2024-01-07T13:46:44;2.00;99.90
16736;DHT22;17990;49.548;9.730;2024-01-07T13:49:12;2.00;99.90
16736;DHT22;17990;49.548;9.730;2024-01-07T13:51:38;2.00;99.90
16736;DHT22;17990;49.548;9.730;2024-01-07T13:54:05;1.90;99.90
16736;DHT22;17990;49.548;9.730;2024-01-07T13:56:32;1.90;99.90
16736;DHT22;17990;49.548;9.730;2024-01-07T13:59:01;1.90;99.90
16736;DHT22;17990;49.548;9.730;2024-01-07T14:01:28;1.90;99.90
16736;DHT22;17990;49.548;9.730;2024-01-07T14:03:56;1.80;99.90
16736;DHT22;17990;49.548;9.730;2024-01-07T14:06:23;1.80;99.90
16736;DHT22;17990;49.548;9.730;2024-01-07T14:08:50;1.80;99.90
16736;DHT22;17990;49.548;9.730;2024-01-07T14:11:17;1.70;99.90
16736;DHT22;17990;49.548;9.730;2024-01-07T14:13:44;1.70;99.90
16736;DHT22;17990;49.548;9.730;2024-01-07T14:16:12;1.70;99.90
16736;DHT22;17990;49.548;9.730;2024-01-07T14:18:38;1.70;99.90
16736;DHT22;17990;49.548;9.730;2024-01-07T14:21:07;1.70;99.90
16736;DHT22;17990;49.548;9.730;2024-01-07T14:23:35;1.70;99.90
16736;DHT22;17990;49.548;9.730;2024-01-07T14:26:02;1.60;99.90
16736;DHT22;17990;49.548;9.730;2024-01-07T14:28:28;1.60;99.90
16736;DHT22;17990;49.548;9.730;2024-01-07T14:30:55;1.60;99.90
16736;DHT22;17990;49.548;9.730;2024-01-07T14:33:23;1.50;99.90
16736;DHT22;17990;49.548;9.730;2024-01-07T14:35:49;1.50;99.90
16736;DHT22;17990;49.548;9.730;2024-01-07T14:38:17;1.50;99.90
16736;DHT22;17990;49.548;9.730;2024-01-07T14:40:44;1.40;99.90
16736;DHT22;17990;49.548;9.730;2024-01-07T14:43:11;1.40;99.90
16736;DHT22;17990;49.548;9.730;2024-01-07T14:45:38;1.50;99.90
16736;DHT22;17990;49.548;9.730;2024-01-07T14:48:06;1.50;99.90
16736;DHT22;17990;49.548;9.730;2024-01-07T14:50:32;1.40;99.90
16736;DHT22;17990;49.548;9.730;2024-01-07T14:52:59;1.30;99.90
16736;DHT22;17990;49.548;9.730;2024-01-07T14:55:27;1.20;99.90
16736;DHT22;17990;49.548;9.730;2024-01-07T14:57:54;1.20;99.90
16736;DHT22;17990;49.548;9.730;2024-01-07T15:00:21;1.20;99.90
16736;DHT22;17990;49.548;9.730;2024-01-07T15:02:48;1.20;99.90
16736;DHT22;17990;49.548;9.730;2024-01-07T15:05:16;1.10;99.90
16736;DHT22;17990;49.548;9.730;2024-01-07T15:07:43;1.10;99.90
16736;DHT22;17990;49.548;9.730;2024-01-07T15:10:15;1.10;99.90
16736;DHT22;17990;49.548;9.730;2024-01-07T15:12:44;1.10;99.90
16736;DHT22;17990;49.548;9.730;2024-01-07T15:15:10;1.00;99.90
16736;DHT22;17990;49.548;9.730;2024-01-07T15:17:37;1.00;99.90
16736;DHT22;17990;49.548;9.730;2024-01-07T15:20:05;0.90;99.90
16736;DHT22;17990;49.548;9.730;2024-01-07T15:22:32;0.90;99.90
16736;DHT22;17990;49.548;9.730;2024-01-07T15:24:59;0.90;99.90
16736;DHT22;17990;49.548;9.730;2024-01-07T15:27:25;0.90;99.90
16736;DHT22;17990;49.548;9.730;2024-01-07T15:29:55;0.90;99.90
16736;DHT22;17990;49.548;9.730;2024-01-07T15:32:22;0.90;99.90
16736;DHT22;17990;49.548;9.730;2024-01-07T15:34:49;0.80;99.90
16736;DHT22;17990;49.548;9.730;2024-01-07T15:37:16;0.80;99.90
16736;DHT22;17990;49.548;9.730;2024-01-07T15:39:42;0.80;99.90
16736;DHT22;17990;49.548;9.730;2024-01-07T15:42:09;0.80;99.90
16736;DHT22;17990;49.548;9.730;2024-01-07T15:44:36;0.80;99.90
16736;DHT22;17990;49.548;9.730;2024-01-07T15:47:05;0.70;99.90